sensor_id;sensor_type;location;lat;lon;timestamp;P1;durP1;ratioP1;P2;durP2;ratioP2
12308;SDS011;6217;48.150;17.142;2022-12-07T00:02:07;10.40;;;6.07;;
12308;SDS011;6217;48.150;17.142;2022-12-07T00:06:14;7.07;;;4.88;;
12308;SDS011;6217;48.150;17.142;2022-12-07T00:10:20;5.85;;;5.00;;
12308;SDS011;6217;48.150;17.142;2022-12-07T00:14:26;4.90;;;4.15;;
12308;SDS011;6217;48.150;17.142;2022-12-07T00:18:32;8.20;;;5.28;;
12308;SDS011;6217;48.150;17.142;2022-12-07T00:22:38;8.05;;;5.70;;
12308;SDS011;6217;48.150;17.142;2022-12-07T00:26:43;7.78;;;5.13;;
12308;SDS011;6217;48.150;17.142;2022-12-07T00:30:50;10.00;;;5.72;;
12308;SDS011;6217;48.150;17.142;2022-12-07T00:34:56;6.20;;;4.50;;
12308;SDS011;6217;48.150;17.142;2022-12-07T00:39:02;9.10;;;5.68;;
12308;SDS011;6217;48.150;17.142;2022-12-07T00:43:08;9.23;;;6.03;;
12308;SDS011;6217;48.150;17.142;2022-12-07T00:47:13;6.82;;;5.43;;
12308;SDS011;6217;48.150;17.142;2022-12-07T00:51:20;7.30;;;5.32;;
12308;SDS011;6217;48.150;17.142;2022-12-07T00:55:28;10.30;;;5.50;;
12308;SDS011;6217;48.150;17.142;2022-12-07T00:59:37;10.40;;;6.68;;
12308;SDS011;6217;48.150;17.142;2022-12-07T01:03:43;7.47;;;5.45;;
12308;SDS011;6217;48.150;17.142;2022-12-07T01:07:49;7.13;;;4.32;;
12308;SDS011;6217;48.150;17.142;2022-12-07T01:11:54;21.77;;;11.77;;
12308;SDS011;6217;48.150;17.142;2022-12-07T01:16:01;8.65;;;5.38;;
12308;SDS011;6217;48.150;17.142;2022-12-07T01:20:08;8.32;;;5.75;;
12308;SDS011;6217;48.150;17.142;2022-12-07T01:24:15;6.45;;;5.57;;
12308;SDS011;6217;48.150;17.142;2022-12-07T01:28:20;7.78;;;5.25;;
12308;SDS011;6217;48.150;17.142;2022-12-07T01:32:26;8.25;;;6.05;;
12308;SDS011;6217;48.150;17.142;2022-12-07T01:36:34;7.75;;;6.00;;
12308;SDS011;6217;48.150;17.142;2022-12-07T01:40:40;8.68;;;5.78;;
12308;SDS011;6217;48.150;17.142;2022-12-07T01:49:24;8.20;;;5.82;;
12308;SDS011;6217;48.150;17.142;2022-12-07T01:53:52;10.45;;;7.47;;
12308;SDS011;6217;48.150;17.142;2022-12-07T01:57:58;10.30;;;7.28;;
12308;SDS011;6217;48.150;17.142;2022-12-07T02:02:05;8.20;;;6.60;;
12308;SDS011;6217;48.150;17.142;2022-12-07T02:06:19;12.32;;;9.52;;
12308;SDS011;6217;48.150;17.142;2022-12-07T02:10:29;9.50;;;7.68;;
12308;SDS011;6217;48.150;17.142;2022-12-07T02:14:36;12.80;;;9.18;;
12308;SDS011;6217;48.150;17.142;2022-12-07T02:31:44;11.30;;;8.52;;
12308;SDS011;6217;48.150;17.142;2022-12-07T02:36:00;14.18;;;8.63;;
12308;SDS011;6217;48.150;17.142;2022-12-07T02:44:37;10.82;;;9.05;;
12308;SDS011;6217;48.150;17.142;2022-12-07T02:48:44;15.82;;;9.88;;
12308;SDS011;6217;48.150;17.142;2022-12-07T02:52:52;13.95;;;10.02;;
12308;SDS011;6217;48.150;17.142;2022-12-07T03:05:51;13.65;;;10.18;;
12308;SDS011;6217;48.150;17.142;2022-12-07T03:10:19;14.23;;;10.73;;
12308;SDS011;6217;48.150;17.142;2022-12-07T03:14:34;15.43;;;11.20;;
12308;SDS011;6217;48.150;17.142;2022-12-07T03:18:55;19.38;;;11.05;;
12308;SDS011;6217;48.150;17.142;2022-12-07T03:23:05;16.83;;;11.70;;
12308;SDS011;6217;48.150;17.142;2022-12-07T03:27:38;17.55;;;12.48;;
12308;SDS011;6217;48.150;17.142;2022-12-07T03:31:46;18.52;;;11.73;;
12308;SDS011;6217;48.150;17.142;2022-12-07T03:36:14;13.75;;;10.45;;
12308;SDS011;6217;48.150;17.142;2022-12-07T03:44:44;18.90;;;11.68;;
12308;SDS011;6217;48.150;17.142;2022-12-07T03:48:54;21.25;;;12.75;;
12308;SDS011;6217;48.150;17.142;2022-12-07T03:53:09;16.67;;;11.20;;
12308;SDS011;6217;48.150;17.142;2022-12-07T03:57:20;19.67;;;12.35;;
12308;SDS011;6217;48.150;17.142;2022-12-07T04:01:27;20.40;;;12.80;;
12308;SDS011;6217;48.150;17.142;2022-12-07T04:05:33;14.98;;;10.90;;
12308;SDS011;6217;48.150;17.142;2022-12-07T04:09:39;18.52;;;12.75;;
12308;SDS011;6217;48.150;17.142;2022-12-07T04:13:45;17.60;;;12.30;;
12308;SDS011;6217;48.150;17.142;2022-12-07T04:18:10;16.83;;;11.95;;
12308;SDS011;6217;48.150;17.142;2022-12-07T04:22:16;16.70;;;11.77;;
12308;SDS011;6217;48.150;17.142;2022-12-07T04:26:21;17.42;;;11.13;;
12308;SDS011;6217;48.150;17.142;2022-12-07T04:30:27;17.77;;;12.15;;
12308;SDS011;6217;48.150;17.142;2022-12-07T04:34:33;16.05;;;11.63;;
12308;SDS011;6217;48.150;17.142;2022-12-07T04:38:39;18.67;;;12.27;;
12308;SDS011;6217;48.150;17.142;2022-12-07T04:42:45;18.25;;;13.02;;
12308;SDS011;6217;48.150;17.142;2022-12-07T04:46:51;20.42;;;13.07;;
12308;SDS011;6217;48.150;17.142;2022-12-07T04:50:57;15.95;;;11.75;;
12308;SDS011;6217;48.150;17.142;2022-12-07T04:55:03;17.90;;;12.93;;
12308;SDS011;6217;48.150;17.142;2022-12-07T04:59:10;15.63;;;11.70;;
12308;SDS011;6217;48.150;17.142;2022-12-07T05:03:17;15.82;;;11.20;;
12308;SDS011;6217;48.150;17.142;2022-12-07T05:07:22;17.88;;;12.63;;
12308;SDS011;6217;48.150;17.142;2022-12-07T05:11:28;17.42;;;11.55;;
12308;SDS011;6217;48.150;17.142;2022-12-07T05:15:43;18.27;;;11.85;;
12308;SDS011;6217;48.150;17.142;2022-12-07T05:19:49;14.98;;;11.48;;
12308;SDS011;6217;48.150;17.142;2022-12-07T05:23:54;15.70;;;11.82;;
12308;SDS011;6217;48.150;17.142;2022-12-07T05:28:00;21.88;;;13.48;;
12308;SDS011;6217;48.150;17.142;2022-12-07T05:32:06;16.88;;;10.85;;
12308;SDS011;6217;48.150;17.142;2022-12-07T05:36:12;14.80;;;11.20;;
12308;SDS011;6217;48.150;17.142;2022-12-07T05:40:18;19.60;;;12.50;;
12308;SDS011;6217;48.150;17.142;2022-12-07T05:44:24;18.80;;;11.35;;
12308;SDS011;6217;48.150;17.142;2022-12-07T05:48:29;15.27;;;10.88;;
12308;SDS011;6217;48.150;17.142;2022-12-07T05:52:35;16.25;;;11.65;;
12308;SDS011;6217;48.150;17.142;2022-12-07T05:56:41;15.77;;;11.82;;
12308;SDS011;6217;48.150;17.142;2022-12-07T06:00:47;15.95;;;11.05;;
12308;SDS011;6217;48.150;17.142;2022-12-07T06:04:53;17.30;;;11.90;;
12308;SDS011;6217;48.150;17.142;2022-12-07T06:08:58;17.63;;;10.65;;
12308;SDS011;6217;48.150;17.142;2022-12-07T06:13:04;18.02;;;12.52;;
12308;SDS011;6217;48.150;17.142;2022-12-07T06:17:10;16.35;;;11.15;;
12308;SDS011;6217;48.150;17.142;2022-12-07T06:21:17;16.38;;;11.02;;
12308;SDS011;6217;48.150;17.142;2022-12-07T06:25:23;14.32;;;10.38;;
12308;SDS011;6217;48.150;17.142;2022-12-07T06:29:29;13.65;;;10.52;;
12308;SDS011;6217;48.150;17.142;2022-12-07T06:33:34;16.23;;;10.65;;
12308;SDS011;6217;48.150;17.142;2022-12-07T06:37:40;14.57;;;10.40;;
12308;SDS011;6217;48.150;17.142;2022-12-07T06:41:46;14.57;;;9.50;;
12308;SDS011;6217;48.150;17.142;2022-12-07T06:45:52;14.63;;;9.73;;
12308;SDS011;6217;48.150;17.142;2022-12-07T06:49:58;13.10;;;10.13;;
12308;SDS011;6217;48.150;17.142;2022-12-07T06:54:03;12.80;;;9.27;;
12308;SDS011;6217;48.150;17.142;2022-12-07T06:58:09;15.90;;;8.90;;
12308;SDS011;6217;48.150;17.142;2022-12-07T07:02:15;12.00;;;8.38;;
12308;SDS011;6217;48.150;17.142;2022-12-07T07:06:21;13.65;;;9.43;;
12308;SDS011;6217;48.150;17.142;2022-12-07T07:10:27;15.07;;;8.32;;
12308;SDS011;6217;48.150;17.142;2022-12-07T07:14:33;14.57;;;8.80;;
12308;SDS011;6217;48.150;17.142;2022-12-07T07:18:39;10.82;;;8.30;;
12308;SDS011;6217;48.150;17.142;2022-12-07T07:22:45;10.93;;;8.00;;
12308;SDS011;6217;48.150;17.142;2022-12-07T07:26:51;12.10;;;8.18;;
12308;SDS011;6217;48.150;17.142;2022-12-07T07:30:56;12.98;;;8.70;;
12308;SDS011;6217;48.150;17.142;2022-12-07T07:35:02;12.40;;;7.85;;
12308;SDS011;6217;48.150;17.142;2022-12-07T07:39:09;11.55;;;8.23;;
12308;SDS011;6217;48.150;17.142;2022-12-07T07:43:17;11.77;;;8.05;;
12308;SDS011;6217;48.150;17.142;2022-12-07T07:47:23;9.60;;;7.22;;
12308;SDS011;6217;48.150;17.142;2022-12-07T07:51:29;12.45;;;8.15;;
12308;SDS011;6217;48.150;17.142;2022-12-07T07:55:35;12.50;;;9.38;;
12308;SDS011;6217;48.150;17.142;2022-12-07T07:59:40;11.55;;;7.82;;
12308;SDS011;6217;48.150;17.142;2022-12-07T08:03:46;17.40;;;7.75;;
12308;SDS011;6217;48.150;17.142;2022-12-07T08:07:52;12.45;;;7.22;;
12308;SDS011;6217;48.150;17.142;2022-12-07T08:11:58;15.93;;;8.68;;
12308;SDS011;6217;48.150;17.142;2022-12-07T08:16:04;11.98;;;7.82;;
12308;SDS011;6217;48.150;17.142;2022-12-07T08:20:12;14.98;;;9.10;;
12308;SDS011;6217;48.150;17.142;2022-12-07T08:24:17;15.02;;;9.38;;
12308;SDS011;6217;48.150;17.142;2022-12-07T08:28:23;15.65;;;9.02;;
12308;SDS011;6217;48.150;17.142;2022-12-07T08:32:29;12.80;;;9.18;;
12308;SDS011;6217;48.150;17.142;2022-12-07T08:36:35;11.55;;;8.60;;
12308;SDS011;6217;48.150;17.142;2022-12-07T08:40:41;11.88;;;9.85;;
12308;SDS011;6217;48.150;17.142;2022-12-07T08:44:47;11.30;;;7.72;;
12308;SDS011;6217;48.150;17.142;2022-12-07T08:48:57;13.68;;;8.30;;
12308;SDS011;6217;48.150;17.142;2022-12-07T08:53:08;19.38;;;9.90;;
12308;SDS011;6217;48.150;17.142;2022-12-07T08:57:14;14.32;;;8.13;;
12308;SDS011;6217;48.150;17.142;2022-12-07T09:01:20;12.05;;;8.07;;
12308;SDS011;6217;48.150;17.142;2022-12-07T09:05:25;13.88;;;9.95;;
12308;SDS011;6217;48.150;17.142;2022-12-07T09:09:31;15.27;;;8.98;;
12308;SDS011;6217;48.150;17.142;2022-12-07T09:13:37;18.25;;;9.55;;
12308;SDS011;6217;48.150;17.142;2022-12-07T09:17:43;14.27;;;9.75;;
12308;SDS011;6217;48.150;17.142;2022-12-07T09:21:49;12.25;;;8.90;;
12308;SDS011;6217;48.150;17.142;2022-12-07T09:25:58;15.98;;;9.60;;
12308;SDS011;6217;48.150;17.142;2022-12-07T09:30:06;13.93;;;7.05;;
12308;SDS011;6217;48.150;17.142;2022-12-07T09:34:12;14.88;;;7.82;;
12308;SDS011;6217;48.150;17.142;2022-12-07T09:38:18;15.25;;;7.57;;
12308;SDS011;6217;48.150;17.142;2022-12-07T09:46:36;11.25;;;6.80;;
12308;SDS011;6217;48.150;17.142;2022-12-07T09:50:43;11.82;;;6.47;;
12308;SDS011;6217;48.150;17.142;2022-12-07T09:54:49;8.35;;;5.53;;
12308;SDS011;6217;48.150;17.142;2022-12-07T09:59:00;14.93;;;5.88;;
12308;SDS011;6217;48.150;17.142;2022-12-07T10:03:07;9.43;;;5.47;;
12308;SDS011;6217;48.150;17.142;2022-12-07T10:07:16;8.60;;;5.55;;
12308;SDS011;6217;48.150;17.142;2022-12-07T10:11:22;6.75;;;4.43;;
12308;SDS011;6217;48.150;17.142;2022-12-07T10:15:41;7.80;;;5.30;;
12308;SDS011;6217;48.150;17.142;2022-12-07T10:19:50;7.78;;;5.53;;
12308;SDS011;6217;48.150;17.142;2022-12-07T10:24:00;5.05;;;3.75;;
12308;SDS011;6217;48.150;17.142;2022-12-07T10:32:32;3.95;;;2.45;;
12308;SDS011;6217;48.150;17.142;2022-12-07T10:36:39;3.30;;;2.40;;
12308;SDS011;6217;48.150;17.142;2022-12-07T10:40:45;2.55;;;2.30;;
12308;SDS011;6217;48.150;17.142;2022-12-07T11:02:32;3.22;;;2.35;;
12308;SDS011;6217;48.150;17.142;2022-12-07T11:11:59;4.93;;;2.20;;
12308;SDS011;6217;48.150;17.142;2022-12-07T11:25:28;2.95;;;2.10;;
12308;SDS011;6217;48.150;17.142;2022-12-07T11:30:00;3.28;;;2.17;;
12308;SDS011;6217;48.150;17.142;2022-12-07T11:39:22;2.60;;;2.40;;
12308;SDS011;6217;48.150;17.142;2022-12-07T11:52:40;3.22;;;2.58;;
12308;SDS011;6217;48.150;17.142;2022-12-07T11:56:53;2.70;;;2.00;;
12308;SDS011;6217;48.150;17.142;2022-12-07T12:01:11;5.00;;;3.03;;
12308;SDS011;6217;48.150;17.142;2022-12-07T12:05:22;3.70;;;2.70;;
12308;SDS011;6217;48.150;17.142;2022-12-07T12:09:34;2.78;;;2.05;;
12308;SDS011;6217;48.150;17.142;2022-12-07T12:27:30;3.78;;;2.40;;
12308;SDS011;6217;48.150;17.142;2022-12-07T12:31:39;2.83;;;2.05;;
12308;SDS011;6217;48.150;17.142;2022-12-07T12:35:46;2.72;;;2.00;;
12308;SDS011;6217;48.150;17.142;2022-12-07T12:48:36;3.13;;;2.33;;
12308;SDS011;6217;48.150;17.142;2022-12-07T13:01:36;3.60;;;2.28;;
12308;SDS011;6217;48.150;17.142;2022-12-07T13:05:47;2.72;;;2.03;;
12308;SDS011;6217;48.150;17.142;2022-12-07T13:09:53;2.75;;;1.73;;
12308;SDS011;6217;48.150;17.142;2022-12-07T13:18:41;2.88;;;1.77;;
12308;SDS011;6217;48.150;17.142;2022-12-07T13:22:48;2.60;;;1.73;;
12308;SDS011;6217;48.150;17.142;2022-12-07T13:26:55;3.53;;;1.83;;
12308;SDS011;6217;48.150;17.142;2022-12-07T13:31:13;3.30;;;1.60;;
12308;SDS011;6217;48.150;17.142;2022-12-07T13:35:30;1.77;;;1.58;;
12308;SDS011;6217;48.150;17.142;2022-12-07T13:39:47;2.00;;;1.60;;
12308;SDS011;6217;48.150;17.142;2022-12-07T13:44:12;2.00;;;1.70;;
12308;SDS011;6217;48.150;17.142;2022-12-07T13:48:33;6.45;;;2.00;;
12308;SDS011;6217;48.150;17.142;2022-12-07T13:52:44;2.40;;;2.08;;
12308;SDS011;6217;48.150;17.142;2022-12-07T13:56:51;4.18;;;2.05;;
12308;SDS011;6217;48.150;17.142;2022-12-07T14:00:58;6.00;;;1.80;;
12308;SDS011;6217;48.150;17.142;2022-12-07T14:05:15;2.03;;;1.60;;
12308;SDS011;6217;48.150;17.142;2022-12-07T14:09:29;2.72;;;2.00;;
12308;SDS011;6217;48.150;17.142;2022-12-07T14:13:36;3.17;;;2.30;;
12308;SDS011;6217;48.150;17.142;2022-12-07T14:17:53;5.53;;;2.08;;
12308;SDS011;6217;48.150;17.142;2022-12-07T14:22:06;3.10;;;2.25;;
12308;SDS011;6217;48.150;17.142;2022-12-07T14:26:15;6.30;;;2.13;;
12308;SDS011;6217;48.150;17.142;2022-12-07T14:30:28;6.00;;;2.78;;
12308;SDS011;6217;48.150;17.142;2022-12-07T14:34:35;2.88;;;1.92;;
12308;SDS011;6217;48.150;17.142;2022-12-07T14:38:41;4.40;;;2.25;;
12308;SDS011;6217;48.150;17.142;2022-12-07T14:42:47;5.65;;;2.78;;
12308;SDS011;6217;48.150;17.142;2022-12-07T14:46:59;2.92;;;2.00;;
12308;SDS011;6217;48.150;17.142;2022-12-07T14:51:05;2.78;;;2.03;;
12308;SDS011;6217;48.150;17.142;2022-12-07T14:59:34;2.17;;;1.98;;
12308;SDS011;6217;48.150;17.142;2022-12-07T15:03:40;8.48;;;2.80;;
12308;SDS011;6217;48.150;17.142;2022-12-07T15:07:47;3.75;;;2.65;;
12308;SDS011;6217;48.150;17.142;2022-12-07T15:11:54;3.33;;;2.47;;
12308;SDS011;6217;48.150;17.142;2022-12-07T15:15:59;5.80;;;2.28;;
12308;SDS011;6217;48.150;17.142;2022-12-07T15:20:08;5.00;;;3.30;;
12308;SDS011;6217;48.150;17.142;2022-12-07T15:24:19;4.78;;;2.65;;
12308;SDS011;6217;48.150;17.142;2022-12-07T15:28:26;6.45;;;3.08;;
12308;SDS011;6217;48.150;17.142;2022-12-07T15:32:31;7.60;;;4.22;;
12308;SDS011;6217;48.150;17.142;2022-12-07T15:36:37;4.65;;;3.10;;
12308;SDS011;6217;48.150;17.142;2022-12-07T15:40:46;4.63;;;3.17;;
12308;SDS011;6217;48.150;17.142;2022-12-07T15:44:52;4.25;;;3.00;;
12308;SDS011;6217;48.150;17.142;2022-12-07T15:49:16;5.32;;;3.80;;
12308;SDS011;6217;48.150;17.142;2022-12-07T15:53:23;5.03;;;3.42;;
12308;SDS011;6217;48.150;17.142;2022-12-07T15:57:29;5.85;;;3.35;;
12308;SDS011;6217;48.150;17.142;2022-12-07T16:01:35;5.05;;;2.97;;
12308;SDS011;6217;48.150;17.142;2022-12-07T16:05:41;6.50;;;3.25;;
12308;SDS011;6217;48.150;17.142;2022-12-07T16:09:47;6.20;;;4.57;;
12308;SDS011;6217;48.150;17.142;2022-12-07T16:13:54;6.50;;;3.92;;
12308;SDS011;6217;48.150;17.142;2022-12-07T16:18:00;4.45;;;3.70;;
12308;SDS011;6217;48.150;17.142;2022-12-07T16:22:06;9.75;;;4.38;;
12308;SDS011;6217;48.150;17.142;2022-12-07T16:26:16;7.97;;;3.97;;
12308;SDS011;6217;48.150;17.142;2022-12-07T16:30:24;6.45;;;4.00;;
12308;SDS011;6217;48.150;17.142;2022-12-07T16:34:30;12.52;;;3.65;;
12308;SDS011;6217;48.150;17.142;2022-12-07T16:38:37;7.03;;;4.55;;
12308;SDS011;6217;48.150;17.142;2022-12-07T16:42:43;6.93;;;4.60;;
12308;SDS011;6217;48.150;17.142;2022-12-07T16:46:49;6.78;;;3.70;;
12308;SDS011;6217;48.150;17.142;2022-12-07T16:50:55;5.13;;;3.35;;
12308;SDS011;6217;48.150;17.142;2022-12-07T16:55:00;7.70;;;3.80;;
12308;SDS011;6217;48.150;17.142;2022-12-07T16:59:06;7.90;;;4.25;;
12308;SDS011;6217;48.150;17.142;2022-12-07T17:03:12;7.32;;;4.10;;
12308;SDS011;6217;48.150;17.142;2022-12-07T17:07:18;7.20;;;3.95;;
12308;SDS011;6217;48.150;17.142;2022-12-07T17:11:25;7.82;;;5.40;;
12308;SDS011;6217;48.150;17.142;2022-12-07T17:15:33;10.68;;;5.10;;
12308;SDS011;6217;48.150;17.142;2022-12-07T17:19:38;6.60;;;4.65;;
12308;SDS011;6217;48.150;17.142;2022-12-07T17:23:45;7.57;;;4.78;;
12308;SDS011;6217;48.150;17.142;2022-12-07T17:27:52;7.43;;;5.13;;
12308;SDS011;6217;48.150;17.142;2022-12-07T17:31:57;7.43;;;4.43;;
12308;SDS011;6217;48.150;17.142;2022-12-07T17:36:10;6.90;;;4.90;;
12308;SDS011;6217;48.150;17.142;2022-12-07T17:40:23;7.13;;;5.60;;
12308;SDS011;6217;48.150;17.142;2022-12-07T17:44:29;7.13;;;4.28;;
12308;SDS011;6217;48.150;17.142;2022-12-07T17:48:36;7.70;;;5.47;;
12308;SDS011;6217;48.150;17.142;2022-12-07T17:52:42;6.70;;;4.45;;
12308;SDS011;6217;48.150;17.142;2022-12-07T17:57:06;6.43;;;4.95;;
12308;SDS011;6217;48.150;17.142;2022-12-07T18:01:12;7.20;;;4.13;;
12308;SDS011;6217;48.150;17.142;2022-12-07T18:05:18;9.43;;;5.30;;
12308;SDS011;6217;48.150;17.142;2022-12-07T18:09:24;7.15;;;4.72;;
12308;SDS011;6217;48.150;17.142;2022-12-07T18:13:30;6.63;;;4.47;;
12308;SDS011;6217;48.150;17.142;2022-12-07T18:17:40;8.55;;;4.95;;
12308;SDS011;6217;48.150;17.142;2022-12-07T18:21:46;9.95;;;4.80;;
12308;SDS011;6217;48.150;17.142;2022-12-07T18:25:52;7.97;;;4.63;;
12308;SDS011;6217;48.150;17.142;2022-12-07T18:29:58;7.30;;;4.90;;
12308;SDS011;6217;48.150;17.142;2022-12-07T18:34:05;7.95;;;5.53;;
12308;SDS011;6217;48.150;17.142;2022-12-07T18:38:16;7.57;;;5.43;;
12308;SDS011;6217;48.150;17.142;2022-12-07T18:42:23;7.20;;;4.28;;
12308;SDS011;6217;48.150;17.142;2022-12-07T18:46:29;6.32;;;4.18;;
12308;SDS011;6217;48.150;17.142;2022-12-07T18:50:35;6.63;;;4.78;;
12308;SDS011;6217;48.150;17.142;2022-12-07T18:54:41;8.38;;;4.65;;
12308;SDS011;6217;48.150;17.142;2022-12-07T18:58:48;11.20;;;5.25;;
12308;SDS011;6217;48.150;17.142;2022-12-07T19:03:17;7.22;;;4.57;;
12308;SDS011;6217;48.150;17.142;2022-12-07T19:07:23;6.32;;;4.28;;
12308;SDS011;6217;48.150;17.142;2022-12-07T19:11:29;6.65;;;4.10;;
12308;SDS011;6217;48.150;17.142;2022-12-07T19:15:55;7.95;;;4.50;;
12308;SDS011;6217;48.150;17.142;2022-12-07T19:20:01;7.32;;;5.32;;
12308;SDS011;6217;48.150;17.142;2022-12-07T19:24:07;5.40;;;4.30;;
12308;SDS011;6217;48.150;17.142;2022-12-07T19:28:13;7.72;;;5.30;;
12308;SDS011;6217;48.150;17.142;2022-12-07T19:32:19;9.40;;;5.30;;
12308;SDS011;6217;48.150;17.142;2022-12-07T19:36:26;6.75;;;4.68;;
12308;SDS011;6217;48.150;17.142;2022-12-07T19:40:32;9.98;;;5.85;;
12308;SDS011;6217;48.150;17.142;2022-12-07T19:44:38;9.18;;;5.10;;
12308;SDS011;6217;48.150;17.142;2022-12-07T19:48:44;9.10;;;5.72;;
12308;SDS011;6217;48.150;17.142;2022-12-07T19:52:50;6.32;;;4.10;;
12308;SDS011;6217;48.150;17.142;2022-12-07T19:56:56;9.00;;;5.90;;
12308;SDS011;6217;48.150;17.142;2022-12-07T20:01:05;9.38;;;4.93;;
12308;SDS011;6217;48.150;17.142;2022-12-07T20:05:11;8.70;;;5.47;;
12308;SDS011;6217;48.150;17.142;2022-12-07T20:09:17;9.45;;;6.47;;
12308;SDS011;6217;48.150;17.142;2022-12-07T20:13:24;10.38;;;5.47;;
12308;SDS011;6217;48.150;17.142;2022-12-07T20:17:36;9.55;;;5.80;;
12308;SDS011;6217;48.150;17.142;2022-12-07T20:21:42;6.03;;;4.85;;
12308;SDS011;6217;48.150;17.142;2022-12-07T20:25:48;11.35;;;5.60;;
12308;SDS011;6217;48.150;17.142;2022-12-07T20:29:54;7.65;;;5.00;;
12308;SDS011;6217;48.150;17.142;2022-12-07T20:34:00;7.07;;;5.03;;
12308;SDS011;6217;48.150;17.142;2022-12-07T20:38:07;7.18;;;4.43;;
12308;SDS011;6217;48.150;17.142;2022-12-07T20:42:15;7.95;;;4.55;;
12308;SDS011;6217;48.150;17.142;2022-12-07T20:46:39;6.82;;;5.25;;
12308;SDS011;6217;48.150;17.142;2022-12-07T20:50:45;7.78;;;5.13;;
12308;SDS011;6217;48.150;17.142;2022-12-07T20:54:51;10.40;;;4.82;;
12308;SDS011;6217;48.150;17.142;2022-12-07T20:58:58;8.48;;;5.28;;
12308;SDS011;6217;48.150;17.142;2022-12-07T21:03:05;8.13;;;4.40;;
12308;SDS011;6217;48.150;17.142;2022-12-07T21:07:11;6.40;;;4.35;;
12308;SDS011;6217;48.150;17.142;2022-12-07T21:11:17;7.43;;;4.38;;
12308;SDS011;6217;48.150;17.142;2022-12-07T21:15:23;6.57;;;4.60;;
12308;SDS011;6217;48.150;17.142;2022-12-07T21:19:29;10.63;;;5.15;;
12308;SDS011;6217;48.150;17.142;2022-12-07T21:23:35;7.70;;;4.63;;
12308;SDS011;6217;48.150;17.142;2022-12-07T21:27:42;8.90;;;5.47;;
12308;SDS011;6217;48.150;17.142;2022-12-07T21:31:48;8.77;;;4.80;;
12308;SDS011;6217;48.150;17.142;2022-12-07T21:35:53;8.80;;;5.05;;
12308;SDS011;6217;48.150;17.142;2022-12-07T21:39:59;9.23;;;5.47;;
12308;SDS011;6217;48.150;17.142;2022-12-07T21:44:05;7.57;;;3.90;;
12308;SDS011;6217;48.150;17.142;2022-12-07T21:48:14;6.22;;;4.15;;
12308;SDS011;6217;48.150;17.142;2022-12-07T21:52:20;6.22;;;4.25;;
12308;SDS011;6217;48.150;17.142;2022-12-07T21:56:27;6.85;;;4.10;;
12308;SDS011;6217;48.150;17.142;2022-12-07T22:00:38;7.00;;;4.78;;
12308;SDS011;6217;48.150;17.142;2022-12-07T22:04:44;9.73;;;4.65;;
12308;SDS011;6217;48.150;17.142;2022-12-07T22:08:50;9.27;;;5.78;;
12308;SDS011;6217;48.150;17.142;2022-12-07T22:12:57;8.05;;;4.45;;
12308;SDS011;6217;48.150;17.142;2022-12-07T22:17:04;4.70;;;3.47;;
12308;SDS011;6217;48.150;17.142;2022-12-07T22:21:10;9.85;;;4.10;;
12308;SDS011;6217;48.150;17.142;2022-12-07T22:25:15;4.70;;;3.28;;
12308;SDS011;6217;48.150;17.142;2022-12-07T22:29:21;6.38;;;3.67;;
12308;SDS011;6217;48.150;17.142;2022-12-07T22:33:28;5.32;;;3.45;;
12308;SDS011;6217;48.150;17.142;2022-12-07T22:37:34;5.45;;;3.35;;
12308;SDS011;6217;48.150;17.142;2022-12-07T22:41:40;9.70;;;4.15;;
12308;SDS011;6217;48.150;17.142;2022-12-07T22:45:55;4.40;;;3.20;;
12308;SDS011;6217;48.150;17.142;2022-12-07T22:50:02;12.07;;;4.60;;
12308;SDS011;6217;48.150;17.142;2022-12-07T22:54:11;7.68;;;3.35;;
12308;SDS011;6217;48.150;17.142;2022-12-07T22:58:22;7.80;;;4.60;;
12308;SDS011;6217;48.150;17.142;2022-12-07T23:02:30;5.22;;;3.75;;
12308;SDS011;6217;48.150;17.142;2022-12-07T23:06:36;8.18;;;5.05;;
12308;SDS011;6217;48.150;17.142;2022-12-07T23:10:43;6.50;;;4.18;;
12308;SDS011;6217;48.150;17.142;2022-12-07T23:14:51;5.68;;;3.95;;
12308;SDS011;6217;48.150;17.142;2022-12-07T23:18:58;7.18;;;5.22;;
12308;SDS011;6217;48.150;17.142;2022-12-07T23:23:10;7.22;;;4.70;;
12308;SDS011;6217;48.150;17.142;2022-12-07T23:27:15;9.02;;;5.60;;
12308;SDS011;6217;48.150;17.142;2022-12-07T23:31:21;4.82;;;3.78;;
12308;SDS011;6217;48.150;17.142;2022-12-07T23:35:30;7.82;;;4.72;;
12308;SDS011;6217;48.150;17.142;2022-12-07T23:39:36;7.32;;;4.10;;
12308;SDS011;6217;48.150;17.142;2022-12-07T23:43:43;9.05;;;5.22;;
12308;SDS011;6217;48.150;17.142;2022-12-07T23:47:49;7.38;;;5.10;;
12308;SDS011;6217;48.150;17.142;2022-12-07T23:51:55;7.47;;;4.57;;
12308;SDS011;6217;48.150;17.142;2022-12-07T23:56:00;8.80;;;4.43;;
